createdAt,value
2019-05-19T00:01:48.453Z,3.47
2019-05-19T00:04:19.858Z,4.50
2019-05-19T00:06:51.406Z,3.75
2019-05-19T00:09:22.858Z,3.42
2019-05-19T00:11:54.421Z,3.55
2019-05-19T00:14:26.029Z,3.25
2019-05-19T00:16:57.934Z,4.03
2019-05-19T00:19:29.490Z,3.70
2019-05-19T00:22:00.750Z,3.42
2019-05-19T00:24:32.809Z,3.40
2019-05-19T00:27:04.570Z,2.98
2019-05-19T00:29:36.025Z,3.33
2019-05-19T00:32:07.789Z,3.05
2019-05-19T00:34:39.242Z,3.02
2019-05-19T00:37:10.597Z,3.40
2019-05-19T00:39:41.744Z,2.80
2019-05-19T00:42:14.008Z,3.12
2019-05-19T00:44:45.261Z,2.67
2019-05-19T00:47:16.300Z,2.90
2019-05-19T00:49:47.456Z,2.95
2019-05-19T00:52:18.889Z,3.00
2019-05-19T00:54:51.072Z,3.12
2019-05-19T00:57:22.534Z,2.58
2019-05-19T00:59:54.186Z,2.30
2019-05-19T01:02:25.951Z,2.83
2019-05-19T01:04:57.518Z,2.65
2019-05-19T01:07:28.861Z,2.90
2019-05-19T01:10:00.099Z,2.80
2019-05-19T01:12:31.454Z,2.47
2019-05-19T01:15:02.599Z,2.85
2019-05-19T01:17:34.153Z,2.87
2019-05-19T01:20:06.605Z,3.05
2019-05-19T01:22:39.108Z,2.52
2019-05-19T01:25:10.569Z,2.47
2019-05-19T01:27:42.120Z,2.90
2019-05-19T01:30:13.781Z,2.45
2019-05-19T01:32:44.930Z,2.30
2019-05-19T01:35:17.208Z,2.20
2019-05-19T01:37:48.455Z,2.52
2019-05-19T01:40:21.133Z,2.70
2019-05-19T01:42:53.105Z,2.77
2019-05-19T01:45:25.276Z,2.42
2019-05-19T01:47:56.671Z,2.70
2019-05-19T01:50:29.210Z,2.83
2019-05-19T01:53:00.967Z,2.62
2019-05-19T01:55:32.322Z,2.35
2019-05-19T01:58:03.676Z,2.20
2019-05-19T02:00:35.125Z,2.65
2019-05-19T02:03:06.281Z,2.30
2019-05-19T02:05:37.838Z,2.33
2019-05-19T02:08:09.081Z,2.70
2019-05-19T02:10:40.436Z,2.67
2019-05-19T02:13:11.684Z,2.15
2019-05-19T02:15:43.342Z,2.58
2019-05-19T02:18:14.944Z,2.72
2019-05-19T02:20:45.942Z,2.40
2019-05-19T02:23:17.395Z,2.15
2019-05-19T02:25:48.954Z,2.60
2019-05-19T02:28:20.000Z,2.08
2019-05-19T02:30:51.247Z,2.30
2019-05-19T02:33:23.118Z,2.40
2019-05-19T02:35:54.467Z,2.20
2019-05-19T02:38:27.065Z,2.52
2019-05-19T02:40:58.317Z,2.10
2019-05-19T02:43:29.646Z,2.80
2019-05-19T02:46:01.017Z,2.72
2019-05-19T02:48:32.457Z,2.40
2019-05-19T02:51:04.121Z,2.37
2019-05-19T02:53:35.572Z,2.05
2019-05-19T02:56:07.128Z,2.47
2019-05-19T02:58:38.475Z,2.30
2019-05-19T03:01:09.926Z,2.20
2019-05-19T03:03:41.587Z,2.62
2019-05-19T03:06:13.252Z,2.20
2019-05-19T03:08:45.065Z,2.25
2019-05-19T03:11:16.479Z,2.52
2019-05-19T03:13:48.119Z,2.00
2019-05-19T03:16:19.880Z,2.47
2019-05-19T03:18:51.949Z,2.37
2019-05-19T03:21:23.609Z,2.00
2019-05-19T03:23:55.035Z,2.22
2019-05-19T03:26:26.422Z,2.75
2019-05-19T03:28:58.073Z,2.20
2019-05-19T03:31:31.109Z,2.50
2019-05-19T03:34:04.560Z,2.87
2019-05-19T03:36:36.126Z,2.30
2019-05-19T03:39:07.984Z,2.45
2019-05-19T03:41:39.442Z,2.35
2019-05-19T03:44:10.484Z,2.30
2019-05-19T03:46:41.744Z,2.60
2019-05-19T03:49:13.503Z,2.27
2019-05-19T03:51:44.847Z,2.83
2019-05-19T03:54:16.411Z,2.98
2019-05-19T03:56:47.963Z,2.35
2019-05-19T03:59:19.524Z,2.12
2019-05-19T04:01:50.574Z,3.00
2019-05-19T04:04:22.013Z,2.50
2019-05-19T04:06:53.471Z,2.92
2019-05-19T04:09:24.840Z,2.95
2019-05-19T04:11:56.110Z,2.55
2019-05-19T04:14:27.626Z,3.08
2019-05-19T04:16:58.885Z,2.58
2019-05-19T04:19:30.229Z,2.47
2019-05-19T04:22:01.286Z,2.50
2019-05-19T04:24:33.099Z,2.58
2019-05-19T04:27:04.917Z,2.72
2019-05-19T04:29:39.302Z,2.12
2019-05-19T04:32:08.831Z,2.42
2019-05-19T04:34:40.287Z,2.40
2019-05-19T04:37:11.632Z,2.20
2019-05-19T04:39:42.984Z,2.58
2019-05-19T04:42:14.245Z,2.65
2019-05-19T04:44:45.793Z,2.47
2019-05-19T04:47:17.141Z,2.60
2019-05-19T04:49:48.697Z,2.50
2019-05-19T04:52:19.952Z,2.70
2019-05-19T04:54:52.330Z,2.70
2019-05-19T04:57:24.597Z,2.65
2019-05-19T04:59:55.889Z,2.45
2019-05-19T05:02:26.889Z,2.25
2019-05-19T05:04:58.456Z,2.47
2019-05-19T05:07:31.132Z,2.22
2019-05-19T05:10:02.684Z,2.27
2019-05-19T05:12:34.154Z,2.17
2019-05-19T05:15:06.482Z,2.08
2019-05-19T05:17:37.966Z,2.52
2019-05-19T05:20:10.143Z,2.47
2019-05-19T05:22:41.489Z,2.30
2019-05-19T05:25:13.354Z,2.17
2019-05-19T05:27:44.399Z,2.25
2019-05-19T05:30:15.470Z,2.25
2019-05-19T05:32:47.002Z,2.45
2019-05-19T05:35:18.651Z,2.37
2019-05-19T05:37:50.213Z,2.20
2019-05-19T05:40:21.568Z,2.70
2019-05-19T05:42:53.016Z,2.02
2019-05-19T05:45:24.577Z,2.30
2019-05-19T05:47:55.722Z,2.30
2019-05-19T05:50:27.178Z,2.17
2019-05-19T05:52:58.566Z,2.20
2019-05-19T05:55:29.744Z,2.40
2019-05-19T05:58:00.713Z,2.12
2019-05-19T06:00:32.371Z,2.17
2019-05-19T06:03:04.948Z,2.45
2019-05-19T06:05:36.202Z,2.58
2019-05-19T06:08:07.653Z,1.98
2019-05-19T06:10:39.382Z,2.15
2019-05-19T06:13:10.904Z,1.98
2019-05-19T06:15:42.480Z,2.25
2019-05-19T06:18:13.782Z,2.72
2019-05-19T06:20:45.332Z,2.15
2019-05-19T06:23:16.479Z,1.95
2019-05-19T06:25:47.934Z,2.20
2019-05-19T06:28:19.395Z,2.35
2019-05-19T06:30:52.892Z,2.50
2019-05-19T06:33:25.870Z,2.50
2019-05-19T06:35:58.038Z,1.95
2019-05-19T06:38:29.499Z,1.92
2019-05-19T06:41:00.949Z,2.25
2019-05-19T06:43:34.211Z,2.10
2019-05-19T06:46:06.761Z,2.27
2019-05-19T06:48:39.004Z,1.90
2019-05-19T06:51:11.553Z,2.50
2019-05-19T06:53:43.109Z,1.55
2019-05-19T06:56:15.677Z,2.15
2019-05-19T06:58:47.375Z,2.15
2019-05-19T07:01:19.408Z,2.12
2019-05-19T07:03:50.749Z,1.90
2019-05-19T07:06:22.114Z,2.20
2019-05-19T07:08:54.071Z,1.70
2019-05-19T07:11:26.426Z,2.15
2019-05-19T07:13:58.701Z,1.90
2019-05-19T07:16:30.354Z,1.62
2019-05-19T07:19:03.589Z,1.92
2019-05-19T07:21:36.366Z,2.10
2019-05-19T07:24:09.341Z,2.22
2019-05-19T07:26:40.784Z,2.17
2019-05-19T07:29:25.446Z,2.27
2019-05-19T07:31:59.260Z,2.37
2019-05-19T07:34:31.515Z,2.83
2019-05-19T07:37:03.739Z,2.30
2019-05-19T07:39:39.529Z,2.08
2019-05-19T07:42:11.705Z,2.27
2019-05-19T07:44:45.383Z,2.08
2019-05-19T07:47:18.789Z,2.22
2019-05-19T07:49:51.656Z,2.20
2019-05-19T07:52:23.312Z,2.00
2019-05-19T07:54:54.758Z,2.30
2019-05-19T07:57:26.766Z,2.25
2019-05-19T07:59:58.379Z,2.08
2019-05-19T08:02:30.770Z,2.27
2019-05-19T08:05:03.301Z,2.00
2019-05-19T08:07:34.795Z,2.00
2019-05-19T08:10:07.084Z,1.70
2019-05-19T08:12:38.278Z,2.30
2019-05-19T08:15:09.540Z,2.50
2019-05-19T08:17:41.086Z,2.40
2019-05-19T08:20:12.541Z,1.70
2019-05-19T08:22:43.888Z,2.02
2019-05-19T08:25:15.271Z,2.60
2019-05-19T08:27:46.831Z,2.10
2019-05-19T08:30:18.446Z,2.12
2019-05-19T08:32:49.934Z,2.33
2019-05-19T08:35:21.041Z,2.17
2019-05-19T08:37:52.491Z,1.82
2019-05-19T08:40:23.843Z,2.08
2019-05-19T08:42:55.599Z,1.92
2019-05-19T08:45:27.092Z,2.00
2019-05-19T08:47:58.302Z,1.90
2019-05-19T08:50:29.652Z,1.98
2019-05-19T08:53:01.211Z,2.02
2019-05-19T08:55:32.664Z,1.90
2019-05-19T08:58:04.423Z,1.95
2019-05-19T09:00:38.385Z,1.85
2019-05-19T09:03:08.348Z,1.98
2019-05-19T09:05:39.401Z,2.62
2019-05-19T09:08:11.054Z,1.77
2019-05-19T09:10:42.609Z,2.35
2019-05-19T09:13:14.169Z,1.90
2019-05-19T09:15:45.410Z,1.90
2019-05-19T09:18:16.965Z,3.00
2019-05-19T09:20:48.415Z,2.00
2019-05-19T09:23:19.866Z,2.00
2019-05-19T09:25:51.419Z,1.90
2019-05-19T09:28:22.980Z,1.90
2019-05-19T09:30:54.432Z,2.15
2019-05-19T09:33:25.888Z,2.08
2019-05-19T09:35:57.133Z,2.08
2019-05-19T09:38:28.287Z,1.90
2019-05-19T09:40:59.326Z,1.70
2019-05-19T09:43:30.577Z,1.75
2019-05-19T09:46:01.519Z,1.77
2019-05-19T09:48:33.135Z,2.00
2019-05-19T09:51:04.529Z,2.12
2019-05-19T09:53:35.977Z,1.75
2019-05-19T09:56:07.538Z,2.00
2019-05-19T09:58:38.880Z,2.08
2019-05-19T10:01:10.231Z,1.95
2019-05-19T10:03:41.695Z,1.98
2019-05-19T10:06:13.136Z,2.10
2019-05-19T10:08:50.837Z,1.80
2019-05-19T10:11:48.405Z,1.80
2019-05-19T10:14:19.570Z,1.40
2019-05-19T10:16:50.898Z,1.80
2019-05-19T10:19:21.939Z,1.40
2019-05-19T10:21:53.189Z,2.05
2019-05-19T10:24:24.333Z,1.72
2019-05-19T10:26:55.789Z,1.95
2019-05-19T10:29:26.936Z,1.77
2019-05-19T10:31:57.985Z,1.95
2019-05-19T10:34:29.439Z,1.72
2019-05-19T10:37:00.890Z,1.85
2019-05-19T10:39:32.443Z,2.12
2019-05-19T10:42:03.819Z,1.47
2019-05-19T10:44:35.252Z,1.60
2019-05-19T10:47:06.294Z,2.12
2019-05-19T10:49:37.642Z,2.33
2019-05-19T10:52:08.894Z,1.67
2019-05-19T10:54:40.351Z,1.50
2019-05-19T10:57:11.800Z,2.33
2019-05-19T10:59:43.363Z,1.80
2019-05-19T11:02:14.817Z,1.57
2019-05-19T11:04:47.197Z,1.62
2019-05-19T11:07:18.557Z,2.12
2019-05-19T11:09:49.601Z,1.65
2019-05-19T11:12:20.633Z,2.02
2019-05-19T11:14:52.899Z,1.87
2019-05-19T11:17:24.360Z,1.65
2019-05-19T11:19:56.012Z,1.80
2019-05-19T11:22:27.367Z,1.80
2019-05-19T11:24:58.617Z,1.70
2019-05-19T11:27:29.966Z,1.60
2019-05-19T11:30:01.322Z,1.95
2019-05-19T11:32:32.666Z,1.60
2019-05-19T11:35:05.200Z,1.42
2019-05-19T11:37:36.294Z,2.05
2019-05-19T11:40:07.440Z,1.90
2019-05-19T11:42:38.588Z,1.57
2019-05-19T11:45:10.047Z,1.70
2019-05-19T11:47:41.385Z,1.75
2019-05-19T11:50:12.844Z,1.45
2019-05-19T11:52:44.209Z,1.65
2019-05-19T11:55:15.642Z,1.52
2019-05-19T11:57:47.102Z,1.72
2019-05-19T12:00:18.770Z,1.77
2019-05-19T12:02:49.809Z,1.77
2019-05-19T12:05:20.953Z,2.00
2019-05-19T12:07:54.750Z,1.47
2019-05-19T12:10:25.088Z,2.00
2019-05-19T12:12:56.354Z,1.57
2019-05-19T12:15:27.482Z,1.70
2019-05-19T12:17:59.264Z,1.98
2019-05-19T12:20:30.797Z,1.62
2019-05-19T12:23:02.363Z,1.60
2019-05-19T12:25:33.800Z,1.60
2019-05-19T12:28:05.252Z,1.70
2019-05-19T12:30:36.397Z,2.10
2019-05-19T12:33:07.911Z,2.00
2019-05-19T12:35:39.014Z,2.00
2019-05-19T12:38:10.343Z,1.90
2019-05-19T12:40:42.273Z,1.65
2019-05-19T12:43:13.250Z,1.60
2019-05-19T12:45:44.519Z,2.15
2019-05-19T12:48:15.874Z,1.70
2019-05-19T12:50:47.195Z,1.32
2019-05-19T12:53:18.541Z,2.17
2019-05-19T12:55:50.102Z,1.57
2019-05-19T12:58:21.346Z,1.27
2019-05-19T13:00:52.801Z,1.52
2019-05-19T13:03:24.056Z,1.50
2019-05-19T13:05:55.403Z,1.52
2019-05-19T13:08:26.960Z,1.65
2019-05-19T13:10:58.227Z,1.72
2019-05-19T13:13:29.978Z,1.50
2019-05-19T13:16:01.114Z,1.60
2019-05-19T13:18:32.468Z,1.62
2019-05-19T13:21:03.606Z,1.40
2019-05-19T13:23:34.853Z,2.35
2019-05-19T13:26:06.513Z,1.55
2019-05-19T13:28:37.910Z,1.52
2019-05-19T13:31:09.214Z,2.00
2019-05-19T13:33:40.362Z,1.70
2019-05-19T13:36:11.606Z,1.40
2019-05-19T13:38:42.956Z,1.70
2019-05-19T13:41:14.406Z,2.17
2019-05-19T13:43:45.660Z,1.60
2019-05-19T13:46:17.208Z,2.02
2019-05-19T13:48:48.556Z,1.40
2019-05-19T13:51:20.013Z,1.60
2019-05-19T13:53:51.356Z,2.15
2019-05-19T13:56:23.735Z,1.80
2019-05-19T13:58:55.084Z,1.40
2019-05-19T14:01:28.843Z,1.75
2019-05-19T14:03:59.323Z,1.63
2019-05-19T14:06:30.464Z,1.50
2019-05-19T14:09:01.943Z,1.50
2019-05-19T14:11:34.812Z,1.40
2019-05-19T14:14:06.266Z,1.75
2019-05-19T14:16:37.609Z,1.57
2019-05-19T14:19:08.966Z,1.35
2019-05-19T14:21:40.619Z,1.77
2019-05-19T14:24:12.167Z,2.33
2019-05-19T14:26:43.728Z,1.40
2019-05-19T14:29:14.866Z,1.32
2019-05-19T14:31:46.319Z,1.65
2019-05-19T14:34:17.466Z,2.08
2019-05-19T14:36:48.918Z,1.35
2019-05-19T14:39:19.861Z,2.35
2019-05-19T14:41:52.951Z,1.37
2019-05-19T14:44:24.305Z,1.82
2019-05-19T14:46:55.757Z,1.30
2019-05-19T14:49:27.111Z,1.50
2019-05-19T14:51:58.560Z,1.50
2019-05-19T14:54:29.706Z,1.75
2019-05-19T14:57:01.163Z,1.90
2019-05-19T14:59:32.202Z,1.80
2019-05-19T15:02:03.570Z,1.80
2019-05-19T15:04:35.011Z,2.10
2019-05-19T15:07:06.475Z,1.80
2019-05-19T15:09:37.918Z,2.10
2019-05-19T15:12:09.379Z,1.82
2019-05-19T15:14:40.918Z,1.85
2019-05-19T15:17:12.373Z,1.40
2019-05-19T15:19:44.645Z,2.40
2019-05-19T15:22:15.891Z,2.30
2019-05-19T15:24:47.243Z,1.62
2019-05-19T15:27:21.149Z,1.35
2019-05-19T15:29:52.502Z,1.95
2019-05-19T15:32:24.054Z,1.70
2019-05-19T15:34:55.500Z,1.85
2019-05-19T15:37:26.644Z,1.65
2019-05-19T15:39:58.199Z,1.60
2019-05-19T15:42:29.446Z,1.95
2019-05-19T15:45:00.897Z,2.02
2019-05-19T15:47:32.042Z,1.75
2019-05-19T15:50:04.575Z,1.62
2019-05-19T15:52:36.690Z,2.10
2019-05-19T15:55:08.043Z,2.37
2019-05-19T15:57:39.531Z,2.72
2019-05-19T16:00:10.795Z,1.98
2019-05-19T16:02:42.198Z,1.90
2019-05-19T16:05:13.544Z,2.08
2019-05-19T16:07:44.802Z,2.10
2019-05-19T16:10:16.154Z,2.02
2019-05-19T16:12:47.186Z,2.35
2019-05-19T16:15:18.468Z,3.10
2019-05-19T16:17:49.993Z,3.35
2019-05-19T16:20:22.675Z,3.42
2019-05-19T16:22:53.922Z,3.62
2019-05-19T16:25:25.289Z,2.72
2019-05-19T16:27:56.724Z,3.62
2019-05-19T16:30:27.968Z,2.60
2019-05-19T16:32:59.456Z,2.80
2019-05-19T16:35:30.667Z,2.75
2019-05-19T16:38:02.326Z,2.60
2019-05-19T16:40:33.778Z,2.40
2019-05-19T16:43:05.341Z,2.60
2019-05-19T16:45:36.689Z,2.55
2019-05-19T16:48:08.050Z,2.10
2019-05-19T16:50:39.586Z,2.37
2019-05-19T16:53:10.936Z,2.20
2019-05-19T16:55:43.011Z,2.30
2019-05-19T16:58:21.179Z,2.70
2019-05-19T17:00:47.042Z,2.27
2019-05-19T17:03:18.486Z,1.87
2019-05-19T17:05:49.845Z,3.37
2019-05-19T17:08:21.497Z,2.37
2019-05-19T17:10:52.638Z,1.82
2019-05-19T17:13:23.888Z,1.98
2019-05-19T17:15:55.442Z,2.35
2019-05-19T17:18:27.106Z,2.70
2019-05-19T17:20:58.655Z,1.95
2019-05-19T17:23:30.223Z,3.27
2019-05-19T17:26:01.562Z,2.50
2019-05-19T17:28:32.908Z,2.58
2019-05-19T17:31:07.501Z,2.60
2019-05-19T17:33:36.940Z,2.75
2019-05-19T17:36:08.296Z,2.77
2019-05-19T17:38:39.440Z,3.42
2019-05-19T17:41:11.105Z,3.22
2019-05-19T17:43:42.353Z,3.35
2019-05-19T17:46:13.508Z,4.50
2019-05-19T17:48:45.153Z,3.87
2019-05-19T17:51:16.298Z,4.20
2019-05-19T17:53:48.061Z,4.33
2019-05-19T17:56:19.514Z,3.83
2019-05-19T17:58:50.766Z,4.30
2019-05-19T18:01:22.208Z,4.85
2019-05-19T18:03:53.460Z,3.72
2019-05-19T18:06:27.911Z,4.47
2019-05-19T18:08:57.804Z,5.28
2019-05-19T18:11:33.676Z,3.70
2019-05-19T18:14:05.734Z,4.05
2019-05-19T18:16:37.292Z,4.10
2019-05-19T18:19:08.630Z,3.95
2019-05-19T18:21:39.880Z,3.25
2019-05-19T18:24:11.536Z,3.27
2019-05-19T18:26:43.089Z,3.75
2019-05-19T18:29:14.643Z,2.95
2019-05-19T18:31:45.895Z,3.12
2019-05-19T18:34:17.654Z,4.40
2019-05-19T18:36:48.695Z,4.00
2019-05-19T18:39:20.050Z,3.50
2019-05-19T18:41:51.192Z,4.30
2019-05-19T18:44:22.847Z,3.98
2019-05-19T18:46:54.301Z,3.33
2019-05-19T18:49:25.759Z,3.42
2019-05-19T18:51:57.514Z,4.30
2019-05-19T18:54:29.159Z,3.62
2019-05-19T18:57:00.527Z,3.35
2019-05-19T18:59:46.108Z,3.92
2019-05-19T19:02:04.868Z,3.92
2019-05-19T19:04:37.246Z,3.90
2019-05-19T19:07:09.030Z,4.70
2019-05-19T19:09:40.477Z,4.30
2019-05-19T19:12:12.011Z,3.87
2019-05-19T19:14:43.471Z,3.35
2019-05-19T19:17:15.222Z,2.42
2019-05-19T19:19:46.676Z,2.80
2019-05-19T19:22:18.024Z,3.22
2019-05-19T19:24:49.681Z,3.98
2019-05-19T19:27:20.941Z,3.20
2019-05-19T19:30:03.110Z,3.20
2019-05-19T19:32:25.471Z,3.60
2019-05-19T19:34:56.719Z,3.15
2019-05-19T19:37:28.183Z,3.60
2019-05-19T19:39:59.423Z,4.25
2019-05-19T19:42:30.781Z,3.85
2019-05-19T19:45:02.138Z,3.02
2019-05-19T19:47:34.140Z,3.77
2019-05-19T19:50:06.122Z,3.70
2019-05-19T19:52:37.416Z,3.40
2019-05-19T19:55:08.963Z,5.53
2019-05-19T19:57:40.317Z,5.60
2019-05-19T20:00:18.505Z,5.08
2019-05-19T20:05:16.818Z,3.80
2019-05-19T20:07:48.717Z,3.55
2019-05-19T20:10:20.133Z,4.45
2019-05-19T20:12:52.118Z,3.92
2019-05-19T20:15:23.237Z,4.00
2019-05-19T20:17:54.686Z,3.92
2019-05-19T20:20:26.218Z,5.17
2019-05-19T20:22:58.510Z,5.12
2019-05-19T20:25:30.067Z,3.87
2019-05-19T20:28:01.762Z,4.58
2019-05-19T20:30:36.166Z,4.53
2019-05-19T20:33:06.557Z,3.60
2019-05-19T20:35:37.872Z,4.15
2019-05-19T20:38:09.370Z,4.20
2019-05-19T20:40:41.021Z,4.58
2019-05-19T20:43:12.881Z,4.20
2019-05-19T20:45:45.271Z,3.75
2019-05-19T20:48:16.407Z,4.20
2019-05-19T20:50:48.365Z,4.45
2019-05-19T20:53:19.635Z,4.62
2019-05-19T20:55:50.854Z,4.10
2019-05-19T20:58:25.652Z,3.80
2019-05-19T21:00:57.864Z,4.28
2019-05-19T21:03:29.732Z,2.95
2019-05-19T21:06:01.385Z,3.67
2019-05-19T21:08:32.770Z,3.77
2019-05-19T21:11:04.276Z,3.05
2019-05-19T21:13:35.876Z,3.77
2019-05-19T21:16:07.598Z,3.00
2019-05-19T21:18:38.752Z,3.30
2019-05-19T21:21:10.293Z,3.15
2019-05-19T21:23:41.901Z,2.95
2019-05-19T21:26:13.104Z,2.65
2019-05-19T21:28:44.661Z,3.17
2019-05-19T21:31:16.207Z,2.90
2019-05-19T21:33:47.558Z,3.02
2019-05-19T21:36:19.216Z,2.85
2019-05-19T21:38:50.590Z,2.92
2019-05-19T21:41:21.817Z,2.50
2019-05-19T21:43:54.036Z,2.67
2019-05-19T21:46:25.751Z,2.65
2019-05-19T21:48:57.207Z,3.25
2019-05-19T21:51:28.560Z,3.60
2019-05-19T21:54:00.322Z,3.52
2019-05-19T21:56:31.474Z,3.22
2019-05-19T21:59:03.026Z,3.15
2019-05-19T22:01:35.195Z,2.80
2019-05-19T22:04:06.211Z,2.95
2019-05-19T22:06:39.438Z,2.77
2019-05-19T22:09:10.987Z,2.37
2019-05-19T22:11:42.452Z,2.70
2019-05-19T22:14:13.693Z,2.83
2019-05-19T22:16:45.253Z,2.25
2019-05-19T22:19:16.812Z,2.20
2019-05-19T22:21:48.158Z,2.65
2019-05-19T22:24:19.509Z,2.65
2019-05-19T22:26:50.864Z,2.98
2019-05-19T22:29:22.011Z,2.60
2019-05-19T22:31:53.366Z,2.65
2019-05-19T22:34:24.553Z,2.67
2019-05-19T22:36:55.650Z,2.80
2019-05-19T22:39:27.184Z,2.72
2019-05-19T22:41:58.703Z,2.15
2019-05-19T22:44:30.117Z,2.42
2019-05-19T22:47:01.572Z,3.02
2019-05-19T22:49:32.719Z,2.55
2019-05-19T22:52:03.859Z,2.30
2019-05-19T22:54:35.220Z,2.40
2019-05-19T22:57:06.876Z,3.15
2019-05-19T22:59:38.225Z,2.47
2019-05-19T23:02:09.577Z,2.87
2019-05-19T23:04:40.835Z,2.58
2019-05-19T23:07:12.030Z,2.72
2019-05-19T23:09:43.529Z,2.60
2019-05-19T23:12:14.982Z,2.47
2019-05-19T23:14:46.147Z,2.98
2019-05-19T23:17:17.584Z,2.75
2019-05-19T23:19:49.139Z,2.67
2019-05-19T23:22:20.484Z,2.75
2019-05-19T23:24:51.943Z,2.83
2019-05-19T23:27:23.083Z,2.35
2019-05-19T23:29:54.536Z,2.90
2019-05-19T23:32:25.792Z,2.50
2019-05-19T23:34:56.936Z,2.52
2019-05-19T23:37:28.494Z,2.37
2019-05-19T23:39:59.535Z,2.50
2019-05-19T23:42:30.690Z,1.87
2019-05-19T23:45:02.243Z,2.37
2019-05-19T23:47:33.495Z,2.60
2019-05-19T23:50:08.015Z,2.05
2019-05-19T23:52:39.264Z,2.42
2019-05-19T23:55:11.029Z,2.85
2019-05-19T23:57:42.511Z,2.22
